createdAt,value
2022-09-12T00:04:12.415Z,2.96
2022-09-12T00:09:19.736Z,2.96
2022-09-12T00:14:27.757Z,2.95
2022-09-12T00:19:34.553Z,2.96
2022-09-12T00:24:42.519Z,2.95
2022-09-12T00:29:50.406Z,2.97
2022-09-12T00:34:57.125Z,2.96
2022-09-12T00:40:04.171Z,2.97
2022-09-12T00:45:10.642Z,2.96
2022-09-12T00:50:17.819Z,2.96
2022-09-12T00:55:25.931Z,2.96
2022-09-12T01:00:33.604Z,2.96
2022-09-12T01:05:41.998Z,2.96
2022-09-12T01:10:49.684Z,2.95
2022-09-12T01:15:57.527Z,2.96
2022-09-12T01:21:05.375Z,2.96
2022-09-12T01:26:13.398Z,2.96
2022-09-12T01:31:20.535Z,2.96
2022-09-12T01:36:27.949Z,2.95
2022-09-12T01:41:37.005Z,2.96
2022-09-12T01:46:44.935Z,2.97
2022-09-12T01:51:52.921Z,2.96
2022-09-12T01:56:59.734Z,2.96
2022-09-12T02:02:08.084Z,2.96
2022-09-12T02:07:15.863Z,2.96
2022-09-12T02:12:21.977Z,2.96
2022-09-12T02:17:30.497Z,2.95
2022-09-12T02:22:38.373Z,2.96
2022-09-12T02:27:45.588Z,2.96
2022-09-12T02:32:53.838Z,2.95
2022-09-12T02:38:01.201Z,2.96
2022-09-12T02:43:08.807Z,2.96
2022-09-12T02:48:15.072Z,2.97
2022-09-12T02:53:22.344Z,2.96
2022-09-12T02:58:30.288Z,2.96
2022-09-12T03:03:38.514Z,2.96
2022-09-12T03:08:46.873Z,2.95
2022-09-12T03:13:54.174Z,2.96
2022-09-12T03:19:00.700Z,2.96
2022-09-12T03:24:09.692Z,2.96
2022-09-12T03:29:17.364Z,2.95
2022-09-12T03:34:24.319Z,2.96
2022-09-12T03:39:32.143Z,2.96
2022-09-12T03:44:39.293Z,2.96
2022-09-12T03:49:47.597Z,2.96
2022-09-12T03:54:54.978Z,2.96
2022-09-12T04:00:02.711Z,2.95
2022-09-12T04:05:11.282Z,2.97
2022-09-12T04:10:20.134Z,2.96
2022-09-12T04:15:27.857Z,2.96
2022-09-12T04:20:41.164Z,2.96
2022-09-12T04:25:47.899Z,2.96
2022-09-12T04:30:55.588Z,2.95
2022-09-12T04:36:02.784Z,2.96
2022-09-12T04:41:10.013Z,2.95
2022-09-12T04:46:17.856Z,2.95
2022-09-12T04:51:25.021Z,2.95
2022-09-12T04:56:32.215Z,2.95
2022-09-12T05:01:40.574Z,2.96
2022-09-12T05:06:47.904Z,2.96
2022-09-12T05:11:56.407Z,2.96
2022-09-12T05:17:04.289Z,2.95
2022-09-12T05:22:18.457Z,2.95
2022-09-12T05:27:25.782Z,2.96
2022-09-12T05:32:34.172Z,2.95
2022-09-12T05:37:41.341Z,2.95
2022-09-12T05:42:48.894Z,2.96
2022-09-12T05:47:56.398Z,2.95
2022-09-12T05:53:03.578Z,2.96
2022-09-12T05:58:12.038Z,2.96
2022-09-12T06:03:20.544Z,2.96
2022-09-12T06:08:27.109Z,2.96
2022-09-12T06:13:34.297Z,2.97
2022-09-12T06:18:41.165Z,2.96
2022-09-12T06:23:49.588Z,2.96
2022-09-12T06:28:56.878Z,2.97
2022-09-12T06:34:04.384Z,2.97
2022-09-12T06:39:11.577Z,2.96
2022-09-12T06:44:20.670Z,2.96
2022-09-12T06:49:29.964Z,2.97
2022-09-12T06:54:37.126Z,2.97
2022-09-12T06:59:43.613Z,2.96
2022-09-12T07:04:52.048Z,2.97
2022-09-12T07:09:59.929Z,2.97
2022-09-12T07:15:08.383Z,2.96
2022-09-12T07:20:17.451Z,2.97
2022-09-12T07:25:26.638Z,2.97
2022-09-12T07:30:34.847Z,2.97
2022-09-12T07:35:42.438Z,2.98
2022-09-12T07:40:50.312Z,2.97
2022-09-12T07:45:59.144Z,2.97
2022-09-12T07:51:07.710Z,2.97
2022-09-12T07:56:14.650Z,2.97
2022-09-12T08:01:24.009Z,2.98
2022-09-12T08:06:30.943Z,2.97
2022-09-12T08:11:39.058Z,2.98
2022-09-12T08:16:45.660Z,2.98
2022-09-12T08:21:53.297Z,2.97
2022-09-12T08:27:00.732Z,2.98
2022-09-12T08:32:07.965Z,2.98
2022-09-12T08:37:13.821Z,2.98
2022-09-12T08:42:22.103Z,2.98
2022-09-12T08:47:29.848Z,2.98
2022-09-12T08:52:37.021Z,2.98
2022-09-12T08:57:44.524Z,2.98
2022-09-12T09:02:52.092Z,2.98
2022-09-12T09:07:59.582Z,2.98
2022-09-12T09:13:07.048Z,2.98
2022-09-12T09:18:14.638Z,2.98
2022-09-12T09:23:23.456Z,3.01
2022-09-12T09:28:30.487Z,3.0
2022-09-12T09:33:36.862Z,2.99
2022-09-12T09:38:44.062Z,3.0
2022-09-12T09:43:51.903Z,3.0
2022-09-12T09:48:58.663Z,3.0
2022-09-12T09:54:05.914Z,3.0
2022-09-12T09:59:13.355Z,3.0
2022-09-12T10:04:20.805Z,3.0
2022-09-12T10:09:27.833Z,3.0
2022-09-12T10:14:37.009Z,3.0
2022-09-12T10:19:45.771Z,2.99
2022-09-12T10:24:53.351Z,3.0
2022-09-12T10:30:02.508Z,3.0
2022-09-12T10:35:09.002Z,3.0
2022-09-12T10:40:15.583Z,3.0
2022-09-12T10:45:22.139Z,3.0
2022-09-12T10:50:31.773Z,3.0
2022-09-12T10:55:40.530Z,3.0
2022-09-12T11:00:47.966Z,3.0
2022-09-12T11:05:56.956Z,3.0
2022-09-12T11:11:04.100Z,3.0
2022-09-12T11:16:12.936Z,3.0
2022-09-12T11:21:20.746Z,3.0
2022-09-12T11:26:26.796Z,3.0
2022-09-12T11:31:35.007Z,3.01
2022-09-12T11:36:43.609Z,3.0
2022-09-12T11:41:50.415Z,3.01
2022-09-12T11:46:56.892Z,3.01
2022-09-12T11:52:04.804Z,2.99
2022-09-12T11:57:11.931Z,3.01
2022-09-12T12:02:19.820Z,3.0
2022-09-12T12:07:26.940Z,2.99
2022-09-12T12:12:34.138Z,3.0
2022-09-12T12:17:40.739Z,2.99
2022-09-12T12:22:47.960Z,2.99
2022-09-12T12:27:55.710Z,2.99
2022-09-12T12:33:02.330Z,3.0
2022-09-12T12:38:09.524Z,3.0
2022-09-12T12:43:17.290Z,3.0
2022-09-12T12:48:24.542Z,3.0
2022-09-12T12:53:31.745Z,3.0
2022-09-12T12:58:42.814Z,3.01
2022-09-12T13:03:50.005Z,3.0
2022-09-12T13:08:57.816Z,3.01
2022-09-12T13:14:05.306Z,3.0
2022-09-12T13:19:12.538Z,3.0
2022-09-12T13:24:18.918Z,3.01
2022-09-12T13:29:25.337Z,3.0
2022-09-12T13:34:33.307Z,3.0
2022-09-12T13:39:41.425Z,3.0
2022-09-12T13:44:49.234Z,3.0
2022-09-12T13:49:57.336Z,3.0
2022-09-12T13:55:06.426Z,3.0
2022-09-12T14:00:14.326Z,2.99
2022-09-12T14:05:20.865Z,3.0
2022-09-12T14:10:28.742Z,3.0
2022-09-12T14:15:39.199Z,3.0
2022-09-12T14:20:45.019Z,2.99
2022-09-12T14:25:51.595Z,2.99
2022-09-12T14:30:59.250Z,3.0
2022-09-12T14:36:06.617Z,3.0
2022-09-12T14:41:13.536Z,2.99
2022-09-12T14:46:22.641Z,2.99
2022-09-12T14:51:30.946Z,2.99
2022-09-12T14:56:37.988Z,3.0
2022-09-12T15:01:44.755Z,3.0
2022-09-12T15:06:51.786Z,3.0
2022-09-12T15:12:00.229Z,2.99
2022-09-12T15:17:07.428Z,2.99
2022-09-12T15:22:21.616Z,2.98
2022-09-12T15:27:30.085Z,2.99
2022-09-12T15:32:37.764Z,2.98
2022-09-12T15:37:45.199Z,3.0
2022-09-12T15:42:53.622Z,2.98
2022-09-12T15:48:00.682Z,2.99
2022-09-12T15:53:07.456Z,2.99
2022-09-12T15:58:14.975Z,2.98
2022-09-12T16:03:22.547Z,2.99
2022-09-12T16:08:29.842Z,2.98
2022-09-12T16:13:36.939Z,3.0
2022-09-12T16:18:44.650Z,2.99
2022-09-12T16:23:52.582Z,2.98
2022-09-12T16:29:00.288Z,2.98
2022-09-12T16:34:08.138Z,2.98
2022-09-12T16:39:15.465Z,2.98
2022-09-12T16:44:23.229Z,2.98
2022-09-12T16:49:31.134Z,2.98
2022-09-12T16:54:37.995Z,2.98
2022-09-12T16:59:45.532Z,2.98
2022-09-12T17:04:52.723Z,2.97
2022-09-12T17:09:58.659Z,2.98
2022-09-12T17:15:06.092Z,2.98
2022-09-12T17:20:13.624Z,2.98
2022-09-12T17:25:20.253Z,2.98
2022-09-12T17:30:27.467Z,2.97
2022-09-12T17:35:35.770Z,2.96
2022-09-12T17:40:43.645Z,2.97
2022-09-12T17:45:51.663Z,2.98
2022-09-12T17:50:59.418Z,2.97
2022-09-12T17:56:08.605Z,2.97
2022-09-12T18:01:17.295Z,2.96
2022-09-12T18:06:24.896Z,2.97
2022-09-12T18:11:32.082Z,2.97
2022-09-12T18:16:40.862Z,2.96
2022-09-12T18:21:48.132Z,2.97
2022-09-12T18:26:56.260Z,2.97
2022-09-12T18:32:04.034Z,2.97
2022-09-12T18:37:11.262Z,2.97
2022-09-12T18:42:19.673Z,2.96
2022-09-12T18:47:26.980Z,2.95
2022-09-12T18:52:34.426Z,2.96
2022-09-12T18:57:42.586Z,2.96
2022-09-12T19:02:49.986Z,2.97
2022-09-12T19:07:57.083Z,2.97
2022-09-12T19:13:04.971Z,2.97
2022-09-12T19:18:13.843Z,2.96
2022-09-12T19:23:23.581Z,2.97
2022-09-12T19:28:31.028Z,2.96
2022-09-12T19:33:38.904Z,2.96
2022-09-12T19:38:45.441Z,2.96
2022-09-12T19:43:53.267Z,2.96
2022-09-12T19:49:00.480Z,2.97
2022-09-12T20:17:24.652Z,2.97
2022-09-12T20:22:30.019Z,2.95
2022-09-12T20:27:43.936Z,2.96
2022-09-12T20:32:50.097Z,2.95
2022-09-12T20:37:57.378Z,2.96
2022-09-12T20:43:04.771Z,2.97
2022-09-12T20:48:11.781Z,2.96
2022-09-12T20:53:19.263Z,2.96
2022-09-12T20:58:27.979Z,2.95
2022-09-12T21:03:34.714Z,2.96
2022-09-12T21:08:42.842Z,2.96
2022-09-12T21:13:56.734Z,2.95
2022-09-12T21:19:03.928Z,2.96
2022-09-12T21:24:12.461Z,2.96
2022-09-12T21:29:21.202Z,2.95
2022-09-12T21:34:29.308Z,2.95
2022-09-12T21:39:37.863Z,2.96
2022-09-12T21:44:45.783Z,2.95
2022-09-12T21:49:52.839Z,2.96
2022-09-12T21:55:00.213Z,2.95
2022-09-12T22:00:08.212Z,2.96
2022-09-12T22:05:14.833Z,2.96
2022-09-12T22:10:23.575Z,2.95
2022-09-12T22:15:31.976Z,2.96
2022-09-12T22:20:41.110Z,2.95
2022-09-12T22:25:47.768Z,2.95
2022-09-12T22:30:55.487Z,2.95
2022-09-12T22:36:03.252Z,2.96
2022-09-12T22:41:10.650Z,2.95
2022-09-12T22:46:18.236Z,2.95
2022-09-12T22:51:25.033Z,2.95
2022-09-12T22:56:32.698Z,2.95
2022-09-12T23:01:40.329Z,2.95
2022-09-12T23:06:48.099Z,2.96
2022-09-12T23:11:55.592Z,2.95
2022-09-12T23:17:04.444Z,2.95
2022-09-12T23:22:12.100Z,2.94
2022-09-12T23:27:19.899Z,2.94
2022-09-12T23:32:28.941Z,2.95
2022-09-12T23:37:37.001Z,2.96
2022-09-12T23:42:45.143Z,2.95
2022-09-12T23:47:51.761Z,2.95
2022-09-12T23:52:58.473Z,2.95
2022-09-12T23:58:06.907Z,2.95
